Waterloo, Pennsylvania
Current Conditions -  °F | °C
As of 11:53 AM on Thursday 30 Oct 2014 (Local Time) from KAOO Reporting Station
Overcast Overcast  
Wind Chill: 42°   Ceiling: 3600
Heat Index: 47°   Visibility: 10mi
Dew Point: 36°   Wind: 10mph
Humidity: 66%   Direction: 330°NNW
Pressure: 30.07"   Gusts: NA
Location:  40.3617°N, 77.6745°W
Report Text: KAOO 301553Z AUTO 33009KT 10SM OVC036 08/02 A3007 RMK AO2 SLP188 T00830022
Loading
Personal Weather Stations






























Interactive Weather Map
Tropical Storm Tracking
New forecast layout! Learn more

10-Day Weather Forecast

Advertisements
Track Severe Weather on mobile